sensor_id;sensor_type;location;lat;lon;timestamp;P1;durP1;ratioP1;P2;durP2;ratioP2
58470;SDS011;44258;51.288;12.068;2023-03-07T00:01:24;29.98;;;10.98;;
58470;SDS011;44258;51.288;12.068;2023-03-07T00:03:52;27.73;;;10.93;;
58470;SDS011;44258;51.288;12.068;2023-03-07T00:06:19;30.10;;;10.55;;
58470;SDS011;44258;51.288;12.068;2023-03-07T00:08:47;28.48;;;10.63;;
58470;SDS011;44258;51.288;12.068;2023-03-07T00:11:16;27.80;;;10.10;;
58470;SDS011;44258;51.288;12.068;2023-03-07T00:13:43;30.73;;;11.07;;
58470;SDS011;44258;51.288;12.068;2023-03-07T00:16:11;31.00;;;11.50;;
58470;SDS011;44258;51.288;12.068;2023-03-07T00:18:43;27.85;;;10.63;;
58470;SDS011;44258;51.288;12.068;2023-03-07T00:21:11;28.10;;;10.88;;
58470;SDS011;44258;51.288;12.068;2023-03-07T00:23:40;28.05;;;10.65;;
58470;SDS011;44258;51.288;12.068;2023-03-07T00:26:10;30.67;;;11.32;;
58470;SDS011;44258;51.288;12.068;2023-03-07T00:28:39;27.85;;;11.35;;
58470;SDS011;44258;51.288;12.068;2023-03-07T00:31:07;30.23;;;10.27;;
58470;SDS011;44258;51.288;12.068;2023-03-07T00:33:35;27.15;;;11.00;;
58470;SDS011;44258;51.288;12.068;2023-03-07T00:36:04;30.95;;;11.43;;
58470;SDS011;44258;51.288;12.068;2023-03-07T00:38:33;27.45;;;10.85;;
58470;SDS011;44258;51.288;12.068;2023-03-07T00:41:00;29.42;;;11.18;;
58470;SDS011;44258;51.288;12.068;2023-03-07T00:43:29;27.77;;;10.05;;
58470;SDS011;44258;51.288;12.068;2023-03-07T00:45:58;26.80;;;10.23;;
58470;SDS011;44258;51.288;12.068;2023-03-07T00:48:25;27.88;;;10.13;;
58470;SDS011;44258;51.288;12.068;2023-03-07T00:50:53;23.77;;;10.13;;
58470;SDS011;44258;51.288;12.068;2023-03-07T00:53:20;24.52;;;8.60;;
58470;SDS011;44258;51.288;12.068;2023-03-07T00:55:57;29.52;;;11.23;;
58470;SDS011;44258;51.288;12.068;2023-03-07T00:58:25;26.15;;;9.85;;
58470;SDS011;44258;51.288;12.068;2023-03-07T01:00:52;26.67;;;9.93;;
58470;SDS011;44258;51.288;12.068;2023-03-07T01:03:20;23.45;;;9.88;;
58470;SDS011;44258;51.288;12.068;2023-03-07T01:05:49;25.50;;;9.27;;
58470;SDS011;44258;51.288;12.068;2023-03-07T01:08:16;29.10;;;10.63;;
58470;SDS011;44258;51.288;12.068;2023-03-07T01:10:44;30.52;;;10.90;;
58470;SDS011;44258;51.288;12.068;2023-03-07T01:13:13;31.27;;;11.50;;
58470;SDS011;44258;51.288;12.068;2023-03-07T01:15:40;28.40;;;11.25;;
58470;SDS011;44258;51.288;12.068;2023-03-07T01:18:08;25.70;;;10.65;;
58470;SDS011;44258;51.288;12.068;2023-03-07T01:20:38;29.08;;;10.88;;
58470;SDS011;44258;51.288;12.068;2023-03-07T01:23:05;25.95;;;10.18;;
58470;SDS011;44258;51.288;12.068;2023-03-07T01:25:36;27.85;;;11.35;;
58470;SDS011;44258;51.288;12.068;2023-03-07T01:28:03;34.30;;;12.15;;
58470;SDS011;44258;51.288;12.068;2023-03-07T01:30:31;30.33;;;11.80;;
58470;SDS011;44258;51.288;12.068;2023-03-07T01:33:01;28.83;;;11.02;;
58470;SDS011;44258;51.288;12.068;2023-03-07T01:35:28;31.27;;;12.18;;
58470;SDS011;44258;51.288;12.068;2023-03-07T01:37:56;29.08;;;11.30;;
58470;SDS011;44258;51.288;12.068;2023-03-07T01:40:23;27.45;;;10.80;;
58470;SDS011;44258;51.288;12.068;2023-03-07T01:42:50;29.70;;;12.00;;
58470;SDS011;44258;51.288;12.068;2023-03-07T01:48:22;29.30;;;10.85;;
58470;SDS011;44258;51.288;12.068;2023-03-07T01:50:49;32.05;;;10.98;;
58470;SDS011;44258;51.288;12.068;2023-03-07T01:53:17;25.48;;;11.27;;
58470;SDS011;44258;51.288;12.068;2023-03-07T01:55:44;29.63;;;11.70;;
58470;SDS011;44258;51.288;12.068;2023-03-07T01:58:11;26.27;;;10.55;;
58470;SDS011;44258;51.288;12.068;2023-03-07T02:00:39;26.90;;;11.05;;
58470;SDS011;44258;51.288;12.068;2023-03-07T02:03:07;28.42;;;10.70;;
58470;SDS011;44258;51.288;12.068;2023-03-07T02:05:41;30.02;;;11.48;;
58470;SDS011;44258;51.288;12.068;2023-03-07T02:08:14;28.15;;;11.15;;
58470;SDS011;44258;51.288;12.068;2023-03-07T02:13:20;27.45;;;11.07;;
58470;SDS011;44258;51.288;12.068;2023-03-07T02:15:47;28.15;;;11.07;;
58470;SDS011;44258;51.288;12.068;2023-03-07T02:18:17;25.00;;;10.40;;
58470;SDS011;44258;51.288;12.068;2023-03-07T02:20:47;26.15;;;10.20;;
58470;SDS011;44258;51.288;12.068;2023-03-07T02:23:21;26.38;;;10.52;;
58470;SDS011;44258;51.288;12.068;2023-03-07T02:25:57;23.55;;;9.40;;
58470;SDS011;44258;51.288;12.068;2023-03-07T02:28:32;24.20;;;9.95;;
58470;SDS011;44258;51.288;12.068;2023-03-07T02:31:01;21.70;;;9.38;;
58470;SDS011;44258;51.288;12.068;2023-03-07T02:33:28;24.67;;;9.75;;
58470;SDS011;44258;51.288;12.068;2023-03-07T02:35:56;25.45;;;10.77;;
58470;SDS011;44258;51.288;12.068;2023-03-07T02:38:25;27.45;;;11.55;;
58470;SDS011;44258;51.288;12.068;2023-03-07T02:40:51;28.23;;;11.23;;
58470;SDS011;44258;51.288;12.068;2023-03-07T02:43:20;27.50;;;10.88;;
58470;SDS011;44258;51.288;12.068;2023-03-07T02:45:49;24.23;;;9.75;;
58470;SDS011;44258;51.288;12.068;2023-03-07T02:48:15;21.63;;;9.43;;
58470;SDS011;44258;51.288;12.068;2023-03-07T02:50:42;24.55;;;10.32;;
58470;SDS011;44258;51.288;12.068;2023-03-07T02:53:08;25.83;;;10.20;;
58470;SDS011;44258;51.288;12.068;2023-03-07T02:55:35;23.80;;;10.18;;
58470;SDS011;44258;51.288;12.068;2023-03-07T02:58:01;26.20;;;9.15;;
58470;SDS011;44258;51.288;12.068;2023-03-07T03:00:27;24.60;;;9.68;;
58470;SDS011;44258;51.288;12.068;2023-03-07T03:02:56;23.40;;;9.90;;
58470;SDS011;44258;51.288;12.068;2023-03-07T03:05:22;22.83;;;8.75;;
58470;SDS011;44258;51.288;12.068;2023-03-07T03:07:51;21.95;;;9.05;;
58470;SDS011;44258;51.288;12.068;2023-03-07T03:10:17;20.38;;;8.32;;
58470;SDS011;44258;51.288;12.068;2023-03-07T03:12:44;25.30;;;10.50;;
58470;SDS011;44258;51.288;12.068;2023-03-07T03:15:11;24.20;;;8.70;;
58470;SDS011;44258;51.288;12.068;2023-03-07T03:17:38;21.77;;;8.68;;
58470;SDS011;44258;51.288;12.068;2023-03-07T03:20:07;22.40;;;8.98;;
58470;SDS011;44258;51.288;12.068;2023-03-07T03:22:37;25.33;;;9.85;;
58470;SDS011;44258;51.288;12.068;2023-03-07T03:25:06;24.67;;;9.85;;
58470;SDS011;44258;51.288;12.068;2023-03-07T03:27:34;21.65;;;9.45;;
58470;SDS011;44258;51.288;12.068;2023-03-07T03:30:01;22.55;;;9.15;;
58470;SDS011;44258;51.288;12.068;2023-03-07T03:32:28;22.92;;;9.13;;
58470;SDS011;44258;51.288;12.068;2023-03-07T03:34:55;23.27;;;9.60;;
58470;SDS011;44258;51.288;12.068;2023-03-07T03:37:22;22.40;;;9.52;;
58470;SDS011;44258;51.288;12.068;2023-03-07T03:39:52;21.88;;;8.73;;
58470;SDS011;44258;51.288;12.068;2023-03-07T03:42:19;24.50;;;9.18;;
58470;SDS011;44258;51.288;12.068;2023-03-07T03:44:45;23.10;;;9.10;;
58470;SDS011;44258;51.288;12.068;2023-03-07T03:47:12;22.67;;;9.45;;
58470;SDS011;44258;51.288;12.068;2023-03-07T03:49:38;22.58;;;9.10;;
58470;SDS011;44258;51.288;12.068;2023-03-07T03:52:05;23.48;;;8.82;;
58470;SDS011;44258;51.288;12.068;2023-03-07T03:54:33;21.80;;;9.18;;
58470;SDS011;44258;51.288;12.068;2023-03-07T03:57:03;23.40;;;9.85;;
58470;SDS011;44258;51.288;12.068;2023-03-07T03:59:29;24.95;;;9.15;;
58470;SDS011;44258;51.288;12.068;2023-03-07T04:01:56;24.70;;;9.55;;
58470;SDS011;44258;51.288;12.068;2023-03-07T04:04:22;25.77;;;10.25;;
58470;SDS011;44258;51.288;12.068;2023-03-07T04:06:49;23.90;;;9.38;;
58470;SDS011;44258;51.288;12.068;2023-03-07T04:09:16;23.30;;;9.32;;
58470;SDS011;44258;51.288;12.068;2023-03-07T04:11:44;23.67;;;8.75;;
58470;SDS011;44258;51.288;12.068;2023-03-07T04:14:10;22.38;;;9.32;;
58470;SDS011;44258;51.288;12.068;2023-03-07T04:16:37;21.02;;;8.93;;
58470;SDS011;44258;51.288;12.068;2023-03-07T04:19:04;19.60;;;8.00;;
58470;SDS011;44258;51.288;12.068;2023-03-07T04:21:31;23.65;;;9.32;;
58470;SDS011;44258;51.288;12.068;2023-03-07T04:23:57;27.05;;;9.23;;
58470;SDS011;44258;51.288;12.068;2023-03-07T04:26:25;21.92;;;9.07;;
58470;SDS011;44258;51.288;12.068;2023-03-07T04:28:52;20.85;;;8.20;;
58470;SDS011;44258;51.288;12.068;2023-03-07T04:31:20;21.73;;;9.18;;
58470;SDS011;44258;51.288;12.068;2023-03-07T04:33:48;25.10;;;10.15;;
58470;SDS011;44258;51.288;12.068;2023-03-07T04:36:15;25.50;;;9.60;;
58470;SDS011;44258;51.288;12.068;2023-03-07T04:38:43;23.38;;;8.70;;
58470;SDS011;44258;51.288;12.068;2023-03-07T04:41:10;20.35;;;7.72;;
58470;SDS011;44258;51.288;12.068;2023-03-07T04:43:38;20.67;;;8.45;;
58470;SDS011;44258;51.288;12.068;2023-03-07T04:46:06;23.05;;;8.75;;
58470;SDS011;44258;51.288;12.068;2023-03-07T04:48:33;20.20;;;8.73;;
58470;SDS011;44258;51.288;12.068;2023-03-07T04:51:00;22.00;;;7.95;;
58470;SDS011;44258;51.288;12.068;2023-03-07T04:53:27;21.77;;;8.80;;
58470;SDS011;44258;51.288;12.068;2023-03-07T04:55:55;19.35;;;8.15;;
58470;SDS011;44258;51.288;12.068;2023-03-07T04:58:23;19.92;;;8.05;;
58470;SDS011;44258;51.288;12.068;2023-03-07T05:00:52;17.33;;;7.65;;
58470;SDS011;44258;51.288;12.068;2023-03-07T05:03:22;20.98;;;7.97;;
58470;SDS011;44258;51.288;12.068;2023-03-07T05:05:50;21.63;;;8.50;;
58470;SDS011;44258;51.288;12.068;2023-03-07T05:08:16;19.85;;;7.70;;
58470;SDS011;44258;51.288;12.068;2023-03-07T05:10:43;18.73;;;8.38;;
58470;SDS011;44258;51.288;12.068;2023-03-07T05:13:10;16.83;;;6.78;;
58470;SDS011;44258;51.288;12.068;2023-03-07T05:15:37;17.67;;;7.43;;
58470;SDS011;44258;51.288;12.068;2023-03-07T05:18:03;20.65;;;8.25;;
58470;SDS011;44258;51.288;12.068;2023-03-07T05:20:32;15.95;;;6.88;;
58470;SDS011;44258;51.288;12.068;2023-03-07T05:22:58;17.58;;;6.93;;
58470;SDS011;44258;51.288;12.068;2023-03-07T05:25:25;16.40;;;7.18;;
58470;SDS011;44258;51.288;12.068;2023-03-07T05:27:52;18.85;;;7.28;;
58470;SDS011;44258;51.288;12.068;2023-03-07T05:30:19;14.77;;;6.55;;
58470;SDS011;44258;51.288;12.068;2023-03-07T05:32:46;19.92;;;6.65;;
58470;SDS011;44258;51.288;12.068;2023-03-07T05:35:16;17.98;;;7.18;;
58470;SDS011;44258;51.288;12.068;2023-03-07T05:37:44;17.33;;;6.72;;
58470;SDS011;44258;51.288;12.068;2023-03-07T05:40:11;14.98;;;6.03;;
58470;SDS011;44258;51.288;12.068;2023-03-07T05:42:38;13.52;;;4.90;;
58470;SDS011;44258;51.288;12.068;2023-03-07T05:45:05;14.65;;;5.55;;
58470;SDS011;44258;51.288;12.068;2023-03-07T05:47:32;15.85;;;6.75;;
58470;SDS011;44258;51.288;12.068;2023-03-07T05:49:59;13.38;;;5.40;;
58470;SDS011;44258;51.288;12.068;2023-03-07T05:52:26;15.93;;;7.05;;
58470;SDS011;44258;51.288;12.068;2023-03-07T05:54:54;15.90;;;6.22;;
58470;SDS011;44258;51.288;12.068;2023-03-07T05:57:20;15.15;;;6.18;;
58470;SDS011;44258;51.288;12.068;2023-03-07T05:59:47;16.73;;;6.82;;
58470;SDS011;44258;51.288;12.068;2023-03-07T06:02:16;16.70;;;6.88;;
58470;SDS011;44258;51.288;12.068;2023-03-07T06:04:44;13.10;;;5.72;;
58470;SDS011;44258;51.288;12.068;2023-03-07T06:07:10;14.60;;;5.72;;
58470;SDS011;44258;51.288;12.068;2023-03-07T06:09:37;17.63;;;6.13;;
58470;SDS011;44258;51.288;12.068;2023-03-07T06:12:06;14.90;;;6.25;;
58470;SDS011;44258;51.288;12.068;2023-03-07T06:14:34;13.60;;;6.30;;
58470;SDS011;44258;51.288;12.068;2023-03-07T06:17:01;15.35;;;6.22;;
58470;SDS011;44258;51.288;12.068;2023-03-07T06:19:31;16.25;;;6.22;;
58470;SDS011;44258;51.288;12.068;2023-03-07T06:21:58;13.52;;;5.75;;
58470;SDS011;44258;51.288;12.068;2023-03-07T06:24:24;15.07;;;5.78;;
58470;SDS011;44258;51.288;12.068;2023-03-07T06:26:51;14.52;;;5.72;;
58470;SDS011;44258;51.288;12.068;2023-03-07T06:29:18;15.00;;;5.72;;
58470;SDS011;44258;51.288;12.068;2023-03-07T06:31:45;14.02;;;5.68;;
58470;SDS011;44258;51.288;12.068;2023-03-07T06:34:11;14.15;;;5.80;;
58470;SDS011;44258;51.288;12.068;2023-03-07T06:36:38;12.60;;;5.57;;
58470;SDS011;44258;51.288;12.068;2023-03-07T06:39:04;14.88;;;5.57;;
58470;SDS011;44258;51.288;12.068;2023-03-07T06:41:32;13.70;;;6.28;;
58470;SDS011;44258;51.288;12.068;2023-03-07T06:43:58;15.98;;;6.20;;
58470;SDS011;44258;51.288;12.068;2023-03-07T06:46:26;14.95;;;5.75;;
58470;SDS011;44258;51.288;12.068;2023-03-07T06:48:52;13.32;;;5.25;;
58470;SDS011;44258;51.288;12.068;2023-03-07T06:51:20;14.23;;;5.32;;
58470;SDS011;44258;51.288;12.068;2023-03-07T06:53:47;13.15;;;5.35;;
58470;SDS011;44258;51.288;12.068;2023-03-07T06:56:14;15.63;;;6.28;;
58470;SDS011;44258;51.288;12.068;2023-03-07T06:58:40;13.85;;;5.32;;
58470;SDS011;44258;51.288;12.068;2023-03-07T07:01:06;17.13;;;6.57;;
58470;SDS011;44258;51.288;12.068;2023-03-07T07:03:42;13.27;;;5.55;;
58470;SDS011;44258;51.288;12.068;2023-03-07T07:06:09;15.60;;;6.15;;
58470;SDS011;44258;51.288;12.068;2023-03-07T07:08:35;13.90;;;5.85;;
58470;SDS011;44258;51.288;12.068;2023-03-07T07:11:02;13.07;;;5.43;;
58470;SDS011;44258;51.288;12.068;2023-03-07T07:13:28;14.40;;;6.05;;
58470;SDS011;44258;51.288;12.068;2023-03-07T07:15:56;12.98;;;5.40;;
58470;SDS011;44258;51.288;12.068;2023-03-07T07:18:22;15.15;;;5.60;;
58470;SDS011;44258;51.288;12.068;2023-03-07T07:20:53;11.95;;;5.00;;
58470;SDS011;44258;51.288;12.068;2023-03-07T07:23:20;12.63;;;4.95;;
58470;SDS011;44258;51.288;12.068;2023-03-07T07:25:46;11.85;;;5.28;;
58470;SDS011;44258;51.288;12.068;2023-03-07T07:28:13;12.55;;;5.13;;
58470;SDS011;44258;51.288;12.068;2023-03-07T07:30:39;12.25;;;4.82;;
58470;SDS011;44258;51.288;12.068;2023-03-07T07:33:06;12.30;;;5.07;;
58470;SDS011;44258;51.288;12.068;2023-03-07T07:35:33;10.32;;;4.45;;
58470;SDS011;44258;51.288;12.068;2023-03-07T07:38:00;10.43;;;4.38;;
58470;SDS011;44258;51.288;12.068;2023-03-07T07:40:27;10.27;;;4.60;;
58470;SDS011;44258;51.288;12.068;2023-03-07T07:42:53;10.25;;;4.13;;
58470;SDS011;44258;51.288;12.068;2023-03-07T07:45:20;10.95;;;3.83;;
58470;SDS011;44258;51.288;12.068;2023-03-07T07:47:47;11.18;;;4.18;;
58470;SDS011;44258;51.288;12.068;2023-03-07T07:50:14;10.38;;;4.25;;
58470;SDS011;44258;51.288;12.068;2023-03-07T07:52:41;11.63;;;4.05;;
58470;SDS011;44258;51.288;12.068;2023-03-07T07:55:09;11.75;;;4.65;;
58470;SDS011;44258;51.288;12.068;2023-03-07T07:57:38;8.95;;;4.25;;
58470;SDS011;44258;51.288;12.068;2023-03-07T08:00:05;12.10;;;4.88;;
58470;SDS011;44258;51.288;12.068;2023-03-07T08:02:33;10.95;;;4.43;;
58470;SDS011;44258;51.288;12.068;2023-03-07T08:05:02;9.68;;;4.18;;
58470;SDS011;44258;51.288;12.068;2023-03-07T08:07:32;10.40;;;3.95;;
58470;SDS011;44258;51.288;12.068;2023-03-07T08:09:58;10.30;;;4.30;;
58470;SDS011;44258;51.288;12.068;2023-03-07T08:12:26;8.32;;;3.20;;
58470;SDS011;44258;51.288;12.068;2023-03-07T08:14:52;10.00;;;4.72;;
58470;SDS011;44258;51.288;12.068;2023-03-07T08:17:20;9.70;;;3.65;;
58470;SDS011;44258;51.288;12.068;2023-03-07T08:19:46;9.88;;;4.00;;
58470;SDS011;44258;51.288;12.068;2023-03-07T08:22:12;10.10;;;4.32;;
58470;SDS011;44258;51.288;12.068;2023-03-07T08:24:40;10.75;;;4.55;;
58470;SDS011;44258;51.288;12.068;2023-03-07T08:27:07;10.30;;;4.35;;
58470;SDS011;44258;51.288;12.068;2023-03-07T08:29:35;10.57;;;4.13;;
58470;SDS011;44258;51.288;12.068;2023-03-07T08:32:02;10.85;;;4.80;;
58470;SDS011;44258;51.288;12.068;2023-03-07T08:34:31;10.18;;;4.60;;
58470;SDS011;44258;51.288;12.068;2023-03-07T08:36:58;10.60;;;4.57;;
58470;SDS011;44258;51.288;12.068;2023-03-07T08:39:25;11.38;;;5.15;;
58470;SDS011;44258;51.288;12.068;2023-03-07T08:41:51;12.77;;;5.15;;
58470;SDS011;44258;51.288;12.068;2023-03-07T08:44:19;9.43;;;4.82;;
58470;SDS011;44258;51.288;12.068;2023-03-07T08:46:47;10.05;;;4.70;;
58470;SDS011;44258;51.288;12.068;2023-03-07T08:49:13;10.13;;;4.63;;
58470;SDS011;44258;51.288;12.068;2023-03-07T08:51:40;10.95;;;4.45;;
58470;SDS011;44258;51.288;12.068;2023-03-07T08:54:06;10.95;;;4.53;;
58470;SDS011;44258;51.288;12.068;2023-03-07T08:56:33;10.88;;;4.65;;
58470;SDS011;44258;51.288;12.068;2023-03-07T08:58:59;10.10;;;4.43;;
58470;SDS011;44258;51.288;12.068;2023-03-07T09:01:26;11.35;;;4.65;;
58470;SDS011;44258;51.288;12.068;2023-03-07T09:03:53;10.90;;;4.45;;
58470;SDS011;44258;51.288;12.068;2023-03-07T09:06:20;17.73;;;7.72;;
58470;SDS011;44258;51.288;12.068;2023-03-07T09:08:46;16.98;;;7.32;;
58470;SDS011;44258;51.288;12.068;2023-03-07T09:11:14;12.15;;;5.28;;
58470;SDS011;44258;51.288;12.068;2023-03-07T09:13:42;12.40;;;5.95;;
58470;SDS011;44258;51.288;12.068;2023-03-07T09:16:09;12.18;;;5.57;;
58470;SDS011;44258;51.288;12.068;2023-03-07T09:18:36;12.93;;;5.05;;
58470;SDS011;44258;51.288;12.068;2023-03-07T09:21:04;11.90;;;5.50;;
58470;SDS011;44258;51.288;12.068;2023-03-07T09:23:31;13.73;;;5.25;;
58470;SDS011;44258;51.288;12.068;2023-03-07T09:25:58;11.68;;;5.32;;
58470;SDS011;44258;51.288;12.068;2023-03-07T09:28:25;13.43;;;5.75;;
58470;SDS011;44258;51.288;12.068;2023-03-07T09:30:52;13.95;;;5.78;;
58470;SDS011;44258;51.288;12.068;2023-03-07T09:33:19;12.13;;;5.82;;
58470;SDS011;44258;51.288;12.068;2023-03-07T09:35:46;12.75;;;5.10;;
58470;SDS011;44258;51.288;12.068;2023-03-07T09:38:13;12.73;;;5.75;;
58470;SDS011;44258;51.288;12.068;2023-03-07T09:40:42;12.68;;;5.50;;
58470;SDS011;44258;51.288;12.068;2023-03-07T09:43:13;13.18;;;6.00;;
58470;SDS011;44258;51.288;12.068;2023-03-07T09:45:45;14.60;;;6.30;;
58470;SDS011;44258;51.288;12.068;2023-03-07T09:48:27;12.02;;;5.10;;
58470;SDS011;44258;51.288;12.068;2023-03-07T09:51:12;13.52;;;5.72;;
58470;SDS011;44258;51.288;12.068;2023-03-07T09:53:44;12.25;;;5.78;;
58470;SDS011;44258;51.288;12.068;2023-03-07T09:56:14;13.35;;;5.78;;
58470;SDS011;44258;51.288;12.068;2023-03-07T09:58:47;13.13;;;5.65;;
58470;SDS011;44258;51.288;12.068;2023-03-07T10:01:20;14.95;;;6.57;;
58470;SDS011;44258;51.288;12.068;2023-03-07T10:03:50;12.18;;;5.28;;
58470;SDS011;44258;51.288;12.068;2023-03-07T10:06:24;13.30;;;6.03;;
58470;SDS011;44258;51.288;12.068;2023-03-07T10:08:55;14.27;;;5.40;;
58470;SDS011;44258;51.288;12.068;2023-03-07T10:11:27;13.30;;;6.30;;
58470;SDS011;44258;51.288;12.068;2023-03-07T10:14:03;13.50;;;5.63;;
58470;SDS011;44258;51.288;12.068;2023-03-07T10:16:41;11.82;;;5.75;;
58470;SDS011;44258;51.288;12.068;2023-03-07T10:19:15;11.98;;;5.70;;
58470;SDS011;44258;51.288;12.068;2023-03-07T10:21:51;13.00;;;5.90;;
58470;SDS011;44258;51.288;12.068;2023-03-07T10:24:42;16.42;;;6.68;;
58470;SDS011;44258;51.288;12.068;2023-03-07T10:27:22;12.80;;;5.57;;
58470;SDS011;44258;51.288;12.068;2023-03-07T10:29:51;14.45;;;6.65;;
58470;SDS011;44258;51.288;12.068;2023-03-07T10:32:22;14.65;;;6.57;;
58470;SDS011;44258;51.288;12.068;2023-03-07T10:34:55;13.20;;;6.07;;
58470;SDS011;44258;51.288;12.068;2023-03-07T10:37:27;13.23;;;6.10;;
58470;SDS011;44258;51.288;12.068;2023-03-07T10:40:08;12.90;;;5.93;;
58470;SDS011;44258;51.288;12.068;2023-03-07T10:42:42;13.98;;;6.47;;
58470;SDS011;44258;51.288;12.068;2023-03-07T10:45:10;13.25;;;6.18;;
58470;SDS011;44258;51.288;12.068;2023-03-07T10:47:38;13.63;;;6.13;;
58470;SDS011;44258;51.288;12.068;2023-03-07T10:50:07;12.00;;;5.60;;
58470;SDS011;44258;51.288;12.068;2023-03-07T10:52:48;12.45;;;5.70;;
58470;SDS011;44258;51.288;12.068;2023-03-07T10:55:33;13.02;;;5.68;;
58470;SDS011;44258;51.288;12.068;2023-03-07T10:58:11;13.73;;;5.95;;
58470;SDS011;44258;51.288;12.068;2023-03-07T11:00:43;14.23;;;5.85;;
58470;SDS011;44258;51.288;12.068;2023-03-07T11:03:22;11.30;;;5.78;;
58470;SDS011;44258;51.288;12.068;2023-03-07T11:05:51;13.73;;;5.68;;
58470;SDS011;44258;51.288;12.068;2023-03-07T11:08:28;12.32;;;5.72;;
58470;SDS011;44258;51.288;12.068;2023-03-07T11:10:58;11.60;;;5.65;;
58470;SDS011;44258;51.288;12.068;2023-03-07T11:13:26;13.38;;;6.22;;
58470;SDS011;44258;51.288;12.068;2023-03-07T11:16:06;12.05;;;5.35;;
58470;SDS011;44258;51.288;12.068;2023-03-07T11:18:36;13.88;;;5.90;;
58470;SDS011;44258;51.288;12.068;2023-03-07T11:21:04;11.50;;;5.88;;
58470;SDS011;44258;51.288;12.068;2023-03-07T11:23:30;12.88;;;5.68;;
58470;SDS011;44258;51.288;12.068;2023-03-07T11:26:13;14.02;;;5.72;;
58470;SDS011;44258;51.288;12.068;2023-03-07T11:28:42;12.15;;;5.40;;
58470;SDS011;44258;51.288;12.068;2023-03-07T11:31:11;11.27;;;5.20;;
58470;SDS011;44258;51.288;12.068;2023-03-07T11:33:46;10.65;;;4.75;;
58470;SDS011;44258;51.288;12.068;2023-03-07T11:36:16;11.93;;;5.38;;
58470;SDS011;44258;51.288;12.068;2023-03-07T11:38:52;11.18;;;5.40;;
58470;SDS011;44258;51.288;12.068;2023-03-07T11:41:26;12.60;;;5.82;;
58470;SDS011;44258;51.288;12.068;2023-03-07T11:44:04;12.88;;;5.03;;
58470;SDS011;44258;51.288;12.068;2023-03-07T11:49:25;13.93;;;5.88;;
58470;SDS011;44258;51.288;12.068;2023-03-07T11:52:09;12.38;;;5.53;;
58470;SDS011;44258;51.288;12.068;2023-03-07T11:54:47;13.35;;;5.38;;
58470;SDS011;44258;51.288;12.068;2023-03-07T11:57:29;12.40;;;4.97;;
58470;SDS011;44258;51.288;12.068;2023-03-07T12:00:29;11.25;;;4.70;;
58470;SDS011;44258;51.288;12.068;2023-03-07T12:03:08;11.25;;;4.53;;
58470;SDS011;44258;51.288;12.068;2023-03-07T12:09:02;10.00;;;3.90;;
58470;SDS011;44258;51.288;12.068;2023-03-07T12:11:55;10.35;;;4.10;;
58470;SDS011;44258;51.288;12.068;2023-03-07T12:14:41;10.95;;;5.10;;
58470;SDS011;44258;51.288;12.068;2023-03-07T12:17:19;10.77;;;5.05;;
58470;SDS011;44258;51.288;12.068;2023-03-07T12:20:00;12.27;;;4.80;;
58470;SDS011;44258;51.288;12.068;2023-03-07T12:22:53;10.55;;;4.57;;
58470;SDS011;44258;51.288;12.068;2023-03-07T12:25:29;11.48;;;5.20;;
58470;SDS011;44258;51.288;12.068;2023-03-07T12:28:02;9.65;;;4.25;;
58470;SDS011;44258;51.288;12.068;2023-03-07T12:30:40;10.85;;;4.50;;
58470;SDS011;44258;51.288;12.068;2023-03-07T12:33:16;10.32;;;4.40;;
58470;SDS011;44258;51.288;12.068;2023-03-07T12:35:50;9.57;;;4.38;;
58470;SDS011;44258;51.288;12.068;2023-03-07T12:38:22;10.63;;;4.82;;
58470;SDS011;44258;51.288;12.068;2023-03-07T12:40:55;10.60;;;4.40;;
58470;SDS011;44258;51.288;12.068;2023-03-07T12:43:28;10.02;;;4.55;;
58470;SDS011;44258;51.288;12.068;2023-03-07T12:46:08;10.18;;;5.00;;
58470;SDS011;44258;51.288;12.068;2023-03-07T12:48:42;10.20;;;4.60;;
58470;SDS011;44258;51.288;12.068;2023-03-07T12:51:17;11.40;;;4.82;;
58470;SDS011;44258;51.288;12.068;2023-03-07T12:53:48;10.55;;;4.55;;
58470;SDS011;44258;51.288;12.068;2023-03-07T12:56:21;10.65;;;4.93;;
58470;SDS011;44258;51.288;12.068;2023-03-07T12:58:53;10.27;;;4.25;;
58470;SDS011;44258;51.288;12.068;2023-03-07T13:01:26;10.20;;;4.78;;
58470;SDS011;44258;51.288;12.068;2023-03-07T13:03:57;11.57;;;4.90;;
58470;SDS011;44258;51.288;12.068;2023-03-07T13:06:31;11.75;;;5.20;;
58470;SDS011;44258;51.288;12.068;2023-03-07T13:09:01;10.88;;;5.10;;
58470;SDS011;44258;51.288;12.068;2023-03-07T13:11:29;10.68;;;4.40;;
58470;SDS011;44258;51.288;12.068;2023-03-07T13:13:57;11.90;;;4.82;;
58470;SDS011;44258;51.288;12.068;2023-03-07T13:16:36;12.93;;;5.45;;
58470;SDS011;44258;51.288;12.068;2023-03-07T13:25:41;10.82;;;4.57;;
58470;SDS011;44258;51.288;12.068;2023-03-07T13:28:29;11.30;;;5.50;;
58470;SDS011;44258;51.288;12.068;2023-03-07T13:40:22;11.20;;;4.82;;
58470;SDS011;44258;51.288;12.068;2023-03-07T13:42:50;11.93;;;5.07;;
58470;SDS011;44258;51.288;12.068;2023-03-07T13:51:14;11.13;;;4.82;;
58470;SDS011;44258;51.288;12.068;2023-03-07T13:53:41;12.20;;;4.60;;
58470;SDS011;44258;51.288;12.068;2023-03-07T13:56:16;10.90;;;4.72;;
58470;SDS011;44258;51.288;12.068;2023-03-07T13:58:50;11.18;;;5.25;;
58470;SDS011;44258;51.288;12.068;2023-03-07T14:01:22;10.85;;;4.88;;
58470;SDS011;44258;51.288;12.068;2023-03-07T14:03:53;11.07;;;4.65;;
58470;SDS011;44258;51.288;12.068;2023-03-07T14:06:25;11.80;;;5.13;;
58470;SDS011;44258;51.288;12.068;2023-03-07T14:08:57;10.23;;;4.55;;
58470;SDS011;44258;51.288;12.068;2023-03-07T14:11:27;10.80;;;4.85;;
58470;SDS011;44258;51.288;12.068;2023-03-07T14:14:11;10.80;;;4.72;;
58470;SDS011;44258;51.288;12.068;2023-03-07T14:16:50;11.45;;;4.95;;
58470;SDS011;44258;51.288;12.068;2023-03-07T14:19:36;9.88;;;4.60;;
58470;SDS011;44258;51.288;12.068;2023-03-07T14:22:16;12.52;;;4.97;;
58470;SDS011;44258;51.288;12.068;2023-03-07T14:27:51;11.02;;;4.68;;
58470;SDS011;44258;51.288;12.068;2023-03-07T14:30:21;10.45;;;4.32;;
58470;SDS011;44258;51.288;12.068;2023-03-07T14:32:48;11.75;;;4.97;;
58470;SDS011;44258;51.288;12.068;2023-03-07T14:35:30;10.25;;;4.22;;
58470;SDS011;44258;51.288;12.068;2023-03-07T14:38:04;10.43;;;5.35;;
58470;SDS011;44258;51.288;12.068;2023-03-07T14:40:34;11.02;;;4.47;;
58470;SDS011;44258;51.288;12.068;2023-03-07T14:43:15;11.15;;;4.45;;
58470;SDS011;44258;51.288;12.068;2023-03-07T14:45:51;10.57;;;4.70;;
58470;SDS011;44258;51.288;12.068;2023-03-07T14:48:28;11.20;;;4.68;;
58470;SDS011;44258;51.288;12.068;2023-03-07T14:51:09;10.27;;;4.30;;
58470;SDS011;44258;51.288;12.068;2023-03-07T14:53:40;10.55;;;4.78;;
58470;SDS011;44258;51.288;12.068;2023-03-07T14:56:07;11.55;;;4.90;;
58470;SDS011;44258;51.288;12.068;2023-03-07T14:58:43;11.15;;;4.50;;
58470;SDS011;44258;51.288;12.068;2023-03-07T15:01:13;10.18;;;4.47;;
58470;SDS011;44258;51.288;12.068;2023-03-07T15:03:44;11.35;;;4.68;;
58470;SDS011;44258;51.288;12.068;2023-03-07T15:06:12;10.48;;;4.78;;
58470;SDS011;44258;51.288;12.068;2023-03-07T15:08:40;14.57;;;4.63;;
58470;SDS011;44258;51.288;12.068;2023-03-07T15:11:08;10.18;;;4.90;;